Terminal Aerodrome Forecast
Issued by NWS Pocatello, ID

Home | Current Version | Previous Version | Text Only | Print | Product List | Glossary On
Versions: 1 2 3 4 5 6 7 8 9 10 11 12 13 14
000
FTUS45 KPIH 201700
TAFBYI
TAF
KBYI 201740Z 2018/2118 24010KT P6SM -RA SCT015 BKN025 OVC060
     FM202300 25012KT P6SM -RA SCT008 OVC025
     FM210600 24014KT 5SM -RA BR OVC008
     FM211600 26025G35KT P6SM VCSH SCT015 BKN025 OVC035=

USA.gov is the U.S. government's official web portal to all federal, state and local government web resources and services.